Strona główna
METAR-TAF:

METAR-TAF

Lotnisko :

Central Park

Nowy Jork, Nowy Jork, Stany Zjednoczone

Szerokość geograficzna: 40-47-00N, Długość geograficzna: 073-58-00W, wysokość: 47 m

Aktualna obserwacja pogody

Raport powstał 43 minut temu, godzina 00:51 UTC
Wiatr 8 kt od południowo-południowy wschód
Temperatura 17°C
Wilgotność 59%
Ciśnienie 1020 hPa
Widzialność: 16.1 km
Mało chmury na wysokości 4700 ft
Rozproszone chmury na wysokości 7000 ft
Zachmurzenie całkowite na wysokości 10000 ft

METAR: KNYC 260051Z AUTO 16008KT 10SM FEW047 SCT070 OVC100 17/09 A3011 RMK AO2 SLP188 T01670094 $

czas: 21:34 (01:34 UTC)


TAF: brakujący

Obserwacja i prognoza pogody dla ponad 4000 lotnisk (raport METAR i TAF).

Dostępne stacje oznaczono żółtymi i czerwonymi punktami na mapie.

Najedź kursorem aby zobaczyć nazwę stacji.

Kliknij aby zobaczyć obserwacje i prognozy pogody.

Aby zmienić mapę: kliknij na zielony przycisk z czarnym krzyżykiem, aby powiększyć; na zielony przycisk z myślnikiem, aby pomniejszyć; na zielone strzałki, aby przejść do map sąsiednich.


METAR-TAF: